createdAt,value
2019-02-08T00:01:56.856Z,94603.29
2019-02-08T00:04:25.458Z,94605.92
2019-02-08T00:06:54.085Z,94613.07
2019-02-08T00:09:22.724Z,94606.96
2019-02-08T00:11:51.796Z,94606.03
2019-02-08T00:14:20.400Z,94621.74
2019-02-08T00:16:48.997Z,94615.58
2019-02-08T00:19:17.561Z,94616.84
2019-02-08T00:21:46.122Z,94620.79
2019-02-08T00:24:15.167Z,94623.67
2019-02-08T00:26:44.058Z,94621.59
2019-02-08T00:29:12.890Z,94627.81
2019-02-08T00:31:41.679Z,94625.40
2019-02-08T00:34:10.319Z,94620.82
2019-02-08T00:36:39.148Z,94626.70
2019-02-08T00:39:10.755Z,94612.63
2019-02-08T00:41:39.392Z,94624.98
2019-02-08T00:44:08.237Z,94624.38
2019-02-08T00:46:36.798Z,94625.34
2019-02-08T00:49:05.447Z,94624.89
2019-02-08T00:51:34.095Z,94630.96
2019-02-08T00:54:02.645Z,94633.56
2019-02-08T00:56:31.218Z,94640.09
2019-02-08T00:58:59.787Z,94636.36
2019-02-08T01:01:28.440Z,94642.02
2019-02-08T01:03:57.022Z,94636.14
2019-02-08T01:06:25.582Z,94633.38
2019-02-08T01:08:54.206Z,94628.50
2019-02-08T01:11:22.781Z,94633.91
2019-02-08T01:13:51.342Z,94641.67
2019-02-08T01:16:19.933Z,94630.14
2019-02-08T01:18:48.671Z,94635.93
2019-02-08T01:21:17.251Z,94638.88
2019-02-08T01:23:45.877Z,94642.55
2019-02-08T01:26:14.440Z,94638.14
2019-02-08T01:28:43.008Z,94644.25
2019-02-08T01:31:11.574Z,94644.79
2019-02-08T01:33:40.378Z,94646.38
2019-02-08T01:36:08.957Z,94643.17
2019-02-08T01:38:37.749Z,94642.18
2019-02-08T01:41:06.401Z,94640.50
2019-02-08T01:43:35.313Z,94642.98
2019-02-08T01:46:04.138Z,94640.27
2019-02-08T01:48:32.719Z,94637.83
2019-02-08T01:51:01.519Z,94641.92
2019-02-08T01:53:30.107Z,94645.39
2019-02-08T01:55:58.671Z,94641.70
2019-02-08T01:58:27.321Z,94641.69
2019-02-08T02:00:55.901Z,94643.89
2019-02-08T02:03:24.604Z,94641.61
2019-02-08T02:05:53.463Z,94641.21
2019-02-08T02:08:22.269Z,94636.48
2019-02-08T02:10:50.900Z,94632.52
2019-02-08T02:13:19.550Z,94632.80
2019-02-08T02:15:48.184Z,94638.59
2019-02-08T02:18:17.115Z,94639.63
2019-02-08T02:20:45.701Z,94643.14
2019-02-08T02:23:15.766Z,94634.98
2019-02-08T02:25:44.994Z,94638.73
2019-02-08T02:28:13.742Z,94645.20
2019-02-08T02:30:42.366Z,94647.59
2019-02-08T02:33:11.720Z,94649.66
2019-02-08T02:35:40.452Z,94652.33
2019-02-08T02:38:09.383Z,94660.50
2019-02-08T02:40:38.184Z,94656.08
2019-02-08T02:43:07.362Z,94660.25
2019-02-08T02:45:37.308Z,94660.95
2019-02-08T02:48:07.773Z,94660.26
2019-02-08T02:50:36.545Z,94658.25
2019-02-08T02:53:05.353Z,94645.46
2019-02-08T02:55:33.947Z,94650.59
2019-02-08T02:58:02.595Z,94650.50
2019-02-08T03:00:37.263Z,94654.45
2019-02-08T03:03:06.102Z,94647.50
2019-02-08T03:05:35.059Z,94645.47
2019-02-08T03:08:04.137Z,94645.52
2019-02-08T03:10:32.993Z,94642.01
2019-02-08T03:13:01.625Z,94645.00
2019-02-08T03:15:30.206Z,94642.56
2019-02-08T03:17:59.003Z,94649.27
2019-02-08T03:20:27.609Z,94634.34
2019-02-08T03:22:56.489Z,94640.06
2019-02-08T03:25:25.471Z,94657.25
2019-02-08T03:27:54.402Z,94654.18
2019-02-08T03:30:29.600Z,94648.44
2019-02-08T03:32:58.246Z,94650.67
2019-02-08T03:35:28.631Z,94646.81
2019-02-08T03:37:57.426Z,94653.86
2019-02-08T03:40:26.927Z,94656.43
2019-02-08T03:42:55.994Z,94662.57
2019-02-08T03:45:26.434Z,94654.30
2019-02-08T03:47:55.246Z,94644.92
2019-02-08T03:50:24.182Z,94649.46
2019-02-08T03:52:52.887Z,94647.59
2019-02-08T03:55:21.987Z,94648.13
2019-02-08T03:57:50.904Z,94642.19
2019-02-08T04:00:25.931Z,94639.30
2019-02-08T04:02:54.644Z,94636.70
2019-02-08T04:05:23.382Z,94625.51
2019-02-08T04:07:52.014Z,94626.77
2019-02-08T04:10:20.722Z,94630.90
2019-02-08T04:12:49.356Z,94621.73
2019-02-08T04:15:18.262Z,94633.91
2019-02-08T04:17:46.903Z,94638.14
2019-02-08T04:20:16.790Z,94635.70
2019-02-08T04:22:45.590Z,94637.59
2019-02-08T04:25:14.900Z,94634.52
2019-02-08T04:27:43.471Z,94642.36
2019-02-08T04:30:15.742Z,94638.33
2019-02-08T04:32:44.316Z,94642.00
2019-02-08T04:35:12.965Z,94648.03
2019-02-08T04:37:41.629Z,94645.69
2019-02-08T04:40:10.845Z,94647.34
2019-02-08T04:42:39.480Z,94638.81
2019-02-08T04:45:08.553Z,94636.41
2019-02-08T04:47:37.196Z,94635.09
2019-02-08T04:50:06.619Z,94637.95
2019-02-08T04:52:35.191Z,94633.80
2019-02-08T04:55:04.389Z,94632.06
2019-02-08T04:57:32.949Z,94637.23
2019-02-08T05:00:01.518Z,94635.63
2019-02-08T05:02:30.241Z,94634.98
2019-02-08T05:04:58.818Z,94633.91
2019-02-08T05:07:27.412Z,94639.98
2019-02-08T05:09:55.977Z,94638.42
2019-02-08T05:12:24.603Z,94637.89
2019-02-08T05:14:53.185Z,94635.83
2019-02-08T05:17:21.731Z,94631.50
2019-02-08T05:19:50.392Z,94633.53
2019-02-08T05:22:18.959Z,94631.38
2019-02-08T05:24:47.519Z,94624.19
2019-02-08T05:27:16.331Z,94627.71
2019-02-08T05:29:44.962Z,94631.16
2019-02-08T05:32:13.539Z,94625.08
2019-02-08T05:34:42.093Z,94626.27
2019-02-08T05:37:10.915Z,94626.79
2019-02-08T05:39:39.764Z,94624.61
2019-02-08T05:42:08.649Z,94624.91
2019-02-08T05:44:37.238Z,94621.34
2019-02-08T05:47:06.035Z,94614.95
2019-02-08T05:49:34.601Z,94619.06
2019-02-08T05:52:03.186Z,94620.37
2019-02-08T05:54:31.744Z,94611.22
2019-02-08T05:57:00.330Z,94602.52
2019-02-08T05:59:28.964Z,94598.02
2019-02-08T06:01:57.547Z,94596.66
2019-02-08T06:04:26.275Z,94607.30
2019-02-08T06:06:54.908Z,94608.55
2019-02-08T06:09:23.461Z,94599.55
2019-02-08T06:11:52.383Z,94602.48
2019-02-08T06:14:20.954Z,94612.07
2019-02-08T06:16:49.614Z,94605.20
2019-02-08T06:19:18.200Z,94607.17
2019-02-08T06:21:46.766Z,94602.47
2019-02-08T06:24:15.334Z,94596.63
2019-02-08T06:26:43.902Z,94594.47
2019-02-08T06:29:12.465Z,94607.67
2019-02-08T06:31:41.218Z,94606.66
2019-02-08T06:34:09.774Z,94597.92
2019-02-08T06:36:38.553Z,94603.38
2019-02-08T06:39:09.348Z,94604.36
2019-02-08T06:41:37.996Z,94610.08
2019-02-08T06:44:06.672Z,94598.09
2019-02-08T06:46:35.509Z,94603.99
2019-02-08T06:49:04.172Z,94606.53
2019-02-08T06:51:32.741Z,94597.22
2019-02-08T06:54:01.351Z,94601.95
2019-02-08T06:56:55.872Z,94608.69
2019-02-08T06:59:28.303Z,94617.70
2019-02-08T07:02:15.916Z,94611.38
2019-02-08T07:04:51.396Z,94617.11
2019-02-08T07:07:34.449Z,94616.10
2019-02-08T07:10:12.965Z,94618.95
2019-02-08T07:12:59.365Z,94624.28
2019-02-08T07:15:56.075Z,94622.67
2019-02-08T07:18:58.585Z,94620.37
2019-02-08T07:21:36.627Z,94623.91
2019-02-08T07:24:27.882Z,94621.89
2019-02-08T07:27:20.281Z,94622.02
2019-02-08T07:30:10.801Z,94626.14
2019-02-08T07:32:45.996Z,94632.78
2019-02-08T07:35:39.771Z,94634.84
2019-02-08T07:38:26.412Z,94633.94
2019-02-08T07:41:24.226Z,94636.63
2019-02-08T07:44:18.184Z,94638.62
2019-02-08T07:46:55.472Z,94640.19
2019-02-08T07:49:55.815Z,94644.23
2019-02-08T07:52:46.403Z,94640.79
2019-02-08T07:55:35.990Z,94650.52
2019-02-08T07:58:13.636Z,94650.37
2019-02-08T08:01:01.324Z,94651.91
2019-02-08T08:03:47.555Z,94649.16
2019-02-08T08:06:33.853Z,94642.70
2019-02-08T08:09:18.835Z,94635.59
2019-02-08T08:12:25.293Z,94632.69
2019-02-08T08:15:09.320Z,94630.57
2019-02-08T08:17:57.128Z,94634.63
2019-02-08T08:20:43.653Z,94637.72
2019-02-08T08:23:21.740Z,94637.69
2019-02-08T08:26:27.943Z,94648.50
2019-02-08T08:29:27.523Z,94640.82
2019-02-08T08:32:03.710Z,94631.46
2019-02-08T08:35:12.537Z,94635.19
2019-02-08T08:38:17.987Z,94632.45
2019-02-08T08:41:36.337Z,94637.23
2019-02-08T08:44:21.253Z,94632.41
2019-02-08T08:47:11.601Z,94628.75
2019-02-08T08:50:08.696Z,94627.12
2019-02-08T08:53:11.936Z,94632.09
2019-02-08T08:56:00.305Z,94618.94
2019-02-08T08:59:19.492Z,94625.45
2019-02-08T09:02:37.274Z,94618.11
2019-02-08T09:05:31.410Z,94614.89
2019-02-08T09:08:33.565Z,94623.84
2019-02-08T09:11:55.709Z,94623.48
2019-02-08T09:15:11.578Z,94619.13
2019-02-08T09:18:20.781Z,94633.05
2019-02-08T09:21:30.939Z,94631.22
2019-02-08T09:24:35.466Z,94627.22
2019-02-08T09:27:37.121Z,94631.10
2019-02-08T09:30:44.367Z,94626.92
2019-02-08T09:33:33.349Z,94622.85
2019-02-08T09:36:48.296Z,94628.14
2019-02-08T09:39:38.007Z,94623.98
2019-02-08T09:42:30.122Z,94617.58
2019-02-08T09:45:37.254Z,94629.09
2019-02-08T09:48:59.252Z,94618.78
2019-02-08T09:51:52.520Z,94612.70
2019-02-08T09:54:57.514Z,94616.37
2019-02-08T09:58:21.406Z,94619.36
2019-02-08T10:01:25.798Z,94615.38
2019-02-08T10:04:30.434Z,94614.67
2019-02-08T10:07:36.220Z,94612.61
2019-02-08T10:11:02.283Z,94609.86
2019-02-08T10:14:24.564Z,94607.20
2019-02-08T10:17:42.568Z,94602.17
2019-02-08T10:20:38.568Z,94616.59
2019-02-08T10:23:50.044Z,94610.08
2019-02-08T10:26:51.570Z,94613.91
2019-02-08T10:30:09.174Z,94620.34
2019-02-08T10:33:08.873Z,94605.23
2019-02-08T10:36:11.984Z,94614.63
2019-02-08T10:39:26.900Z,94613.84
2019-02-08T10:42:48.970Z,94619.67
2019-02-08T10:46:01.125Z,94604.05
2019-02-08T10:49:10.051Z,94602.70
2019-02-08T10:52:18.721Z,94600.84
2019-02-08T10:55:23.313Z,94586.30
2019-02-08T10:58:27.835Z,94583.82
2019-02-08T11:01:33.209Z,94579.75
2019-02-08T11:05:01.231Z,94571.36
2019-02-08T11:08:13.997Z,94579.05
2019-02-08T11:11:44.773Z,94560.56
2019-02-08T11:14:46.700Z,94571.05
2019-02-08T11:18:03.151Z,94565.63
2019-02-08T11:20:31.831Z,94567.56
2019-02-08T11:23:00.405Z,94569.16
2019-02-08T11:25:29.219Z,94568.83
2019-02-08T11:27:57.801Z,94557.13
2019-02-08T11:30:26.470Z,94552.66
2019-02-08T11:32:55.223Z,94554.99
2019-02-08T11:35:23.818Z,94548.37
2019-02-08T11:37:52.448Z,94547.40
2019-02-08T11:40:24.946Z,94540.98
2019-02-08T11:42:53.548Z,94538.14
2019-02-08T11:45:22.296Z,94526.31
2019-02-08T11:47:51.006Z,94522.93
2019-02-08T11:50:20.508Z,94536.36
2019-02-08T11:52:49.080Z,94529.34
2019-02-08T11:55:18.033Z,94526.34
2019-02-08T11:57:46.558Z,94526.32
2019-02-08T12:00:18.871Z,94525.99
2019-02-08T12:02:47.460Z,94526.80
2019-02-08T12:05:16.176Z,94514.45
2019-02-08T12:07:44.771Z,94505.30
2019-02-08T12:10:13.485Z,94514.52
2019-02-08T12:12:42.571Z,94519.20
2019-02-08T12:15:12.624Z,94513.91
2019-02-08T12:17:41.219Z,94509.02
2019-02-08T12:20:10.522Z,94506.34
2019-02-08T12:22:39.109Z,94496.05
2019-02-08T12:25:07.941Z,94496.04
2019-02-08T12:27:36.786Z,94494.80
2019-02-08T12:30:09.153Z,94501.41
2019-02-08T12:32:37.751Z,94484.44
2019-02-08T12:35:07.431Z,94483.77
2019-02-08T12:37:36.143Z,94494.66
2019-02-08T12:40:06.184Z,94479.61
2019-02-08T12:42:34.779Z,94471.20
2019-02-08T12:45:03.844Z,94475.84
2019-02-08T12:47:32.528Z,94481.05
2019-02-08T12:50:01.101Z,94473.47
2019-02-08T12:52:29.653Z,94475.16
2019-02-08T12:54:58.261Z,94483.14
2019-02-08T12:57:26.843Z,94465.64
2019-02-08T12:59:55.399Z,94446.16
2019-02-08T13:02:24.015Z,94444.05
2019-02-08T13:04:52.590Z,94459.61
2019-02-08T13:07:21.166Z,94445.64
2019-02-08T13:09:49.747Z,94446.23
2019-02-08T13:12:18.344Z,94448.17
2019-02-08T13:14:46.913Z,94448.44
2019-02-08T13:17:15.467Z,94436.02
2019-02-08T13:19:44.136Z,94433.72
2019-02-08T13:22:12.707Z,94426.06
2019-02-08T13:24:41.295Z,94421.45
2019-02-08T13:27:09.942Z,94425.52
2019-02-08T13:29:38.609Z,94424.23
2019-02-08T13:32:07.168Z,94417.02
2019-02-08T13:34:35.766Z,94406.13
2019-02-08T13:37:04.438Z,94422.06
2019-02-08T13:39:34.577Z,94408.32
2019-02-08T13:42:03.064Z,94402.69
2019-02-08T13:44:32.121Z,94402.77
2019-02-08T13:47:00.725Z,94393.08
2019-02-08T13:49:29.287Z,94397.38
2019-02-08T13:51:57.891Z,94389.10
2019-02-08T13:54:26.445Z,94396.67
2019-02-08T13:57:00.568Z,94388.78
2019-02-08T13:59:25.325Z,94367.85
2019-02-08T14:01:54.700Z,94366.45
2019-02-08T14:04:23.516Z,94385.63
2019-02-08T14:06:52.146Z,94369.55
2019-02-08T14:09:21.295Z,94377.84
2019-02-08T14:11:50.114Z,94366.82
2019-02-08T14:14:18.918Z,94374.89
2019-02-08T14:16:47.759Z,94356.89
2019-02-08T14:19:16.533Z,94368.61
2019-02-08T14:21:45.359Z,94376.37
2019-02-08T14:24:13.933Z,94359.05
2019-02-08T14:26:42.721Z,94364.12
2019-02-08T14:29:11.288Z,94360.42
2019-02-08T14:31:39.853Z,94359.41
2019-02-08T14:34:08.511Z,94358.80
2019-02-08T14:36:37.130Z,94361.48
2019-02-08T14:39:09.347Z,94362.70
2019-02-08T14:41:37.930Z,94355.16
2019-02-08T14:44:06.655Z,94350.53
2019-02-08T14:46:35.229Z,94345.13
2019-02-08T14:49:03.880Z,94329.63
2019-02-08T14:51:32.497Z,94335.04
2019-02-08T14:54:01.075Z,94331.16
2019-02-08T14:56:30.810Z,94319.41
2019-02-08T14:58:59.415Z,94312.64
2019-02-08T15:01:27.999Z,94313.08
2019-02-08T15:03:56.633Z,94308.71
2019-02-08T15:06:25.191Z,94310.89
2019-02-08T15:08:53.750Z,94325.05
2019-02-08T15:11:22.318Z,94307.86
2019-02-08T15:13:51.125Z,94312.36
2019-02-08T15:16:19.700Z,94298.84
2019-02-08T15:18:48.289Z,94300.70
2019-02-08T15:21:16.841Z,94294.88
2019-02-08T15:23:45.440Z,94290.88
2019-02-08T15:26:14.240Z,94278.98
2019-02-08T15:28:42.807Z,94272.39
2019-02-08T15:31:11.438Z,94266.80
2019-02-08T15:33:40.024Z,94272.07
2019-02-08T15:36:08.596Z,94283.26
2019-02-08T15:38:37.178Z,94273.39
2019-02-08T15:41:05.817Z,94270.67
2019-02-08T15:43:34.446Z,94262.06
2019-02-08T15:46:04.979Z,94269.00
2019-02-08T15:48:33.702Z,94256.93
2019-02-08T15:51:02.377Z,94261.31
2019-02-08T15:53:30.979Z,94270.95
2019-02-08T15:56:11.558Z,94251.41
2019-02-08T15:58:40.335Z,94249.30
2019-02-08T16:01:10.469Z,94251.71
2019-02-08T16:03:39.102Z,94241.23
2019-02-08T16:06:08.118Z,94241.45
2019-02-08T16:08:36.824Z,94243.72
2019-02-08T16:11:05.795Z,94260.96
2019-02-08T16:13:34.355Z,94243.38
2019-02-08T16:16:03.017Z,94238.41
2019-02-08T16:18:31.819Z,94242.75
2019-02-08T16:21:00.421Z,94234.75
2019-02-08T16:23:29.049Z,94236.20
2019-02-08T16:25:57.616Z,94231.37
2019-02-08T16:28:26.243Z,94225.48
2019-02-08T16:30:54.802Z,94227.05
2019-02-08T16:33:23.371Z,94223.02
2019-02-08T16:35:51.999Z,94227.30
2019-02-08T16:38:20.792Z,94221.36
2019-02-08T16:40:49.464Z,94224.88
2019-02-08T16:43:18.019Z,94213.62
2019-02-08T16:45:46.604Z,94216.31
2019-02-08T16:48:15.281Z,94218.46
2019-02-08T16:50:44.269Z,94224.98
2019-02-08T16:53:13.265Z,94217.54
2019-02-08T16:55:41.847Z,94219.92
2019-02-08T16:58:10.778Z,94206.66
2019-02-08T17:00:39.445Z,94210.44
2019-02-08T17:03:09.997Z,94202.08
2019-02-08T17:05:38.699Z,94197.60
2019-02-08T17:08:07.391Z,94199.84
2019-02-08T17:10:36.122Z,94197.44
2019-02-08T17:13:05.029Z,94189.48
2019-02-08T17:15:34.623Z,94202.70
2019-02-08T17:18:03.277Z,94190.85
2019-02-08T17:20:36.907Z,94183.72
2019-02-08T17:23:05.539Z,94173.61
2019-02-08T17:25:34.277Z,94163.86
2019-02-08T17:28:02.944Z,94158.83
2019-02-08T17:30:31.609Z,94171.55
2019-02-08T17:33:00.169Z,94163.39
2019-02-08T17:35:29.081Z,94161.11
2019-02-08T17:37:58.078Z,94160.56
2019-02-08T17:40:28.444Z,94165.69
2019-02-08T17:42:57.022Z,94164.72
2019-02-08T17:45:25.763Z,94164.77
2019-02-08T17:47:54.785Z,94164.25
2019-02-08T17:50:24.704Z,94166.46
2019-02-08T17:52:53.529Z,94164.34
2019-02-08T17:55:23.170Z,94160.10
2019-02-08T17:57:51.731Z,94147.55
2019-02-08T18:00:45.868Z,94147.73
2019-02-08T18:03:14.445Z,94128.03
2019-02-08T18:05:43.097Z,94152.63
2019-02-08T18:08:11.783Z,94149.96
2019-02-08T18:10:41.361Z,94142.39
2019-02-08T18:13:10.093Z,94144.99
2019-02-08T18:15:38.664Z,94158.04
2019-02-08T18:18:09.002Z,94136.02
2019-02-08T18:20:40.017Z,94146.48
2019-02-08T18:23:08.705Z,94130.45
2019-02-08T18:25:37.353Z,94124.44
2019-02-08T18:28:10.771Z,94131.36
2019-02-08T18:30:36.639Z,94123.79
2019-02-08T18:33:05.278Z,94113.30
2019-02-08T18:35:33.862Z,94113.36
2019-02-08T18:38:02.508Z,94100.46
2019-02-08T18:40:31.150Z,94100.23
2019-02-08T18:42:59.729Z,94101.61
2019-02-08T18:45:28.500Z,94096.45
2019-02-08T18:47:57.109Z,94077.88
2019-02-08T18:50:27.843Z,94078.30
2019-02-08T18:52:56.470Z,94074.62
2019-02-08T18:55:25.359Z,94073.00
2019-02-08T18:57:53.952Z,94069.56
2019-02-08T19:00:24.865Z,94040.13
2019-02-08T19:02:53.558Z,94066.72
2019-02-08T19:05:22.352Z,94059.98
2019-02-08T19:07:51.348Z,94062.25
2019-02-08T19:10:20.133Z,94049.94
2019-02-08T19:12:49.022Z,94041.15
2019-02-08T19:15:18.785Z,94059.29
2019-02-08T19:17:47.432Z,94033.53
2019-02-08T19:20:17.771Z,94050.53
2019-02-08T19:22:46.492Z,94049.22
2019-02-08T19:25:23.561Z,94031.06
2019-02-08T19:27:52.127Z,94039.52
2019-02-08T19:30:25.614Z,94024.04
2019-02-08T19:32:54.249Z,94028.86
2019-02-08T19:35:22.935Z,94020.97
2019-02-08T19:37:51.514Z,94024.34
2019-02-08T19:40:28.564Z,94006.38
2019-02-08T19:42:57.160Z,94008.06
2019-02-08T19:45:25.890Z,94015.78
2019-02-08T19:47:54.567Z,93993.20
2019-02-08T19:50:25.425Z,94003.78
2019-02-08T19:52:54.032Z,93995.52
2019-02-08T19:55:22.626Z,94002.73
2019-02-08T19:57:51.304Z,94007.34
2019-02-08T20:00:21.894Z,93984.47
2019-02-08T20:02:50.550Z,93984.77
2019-02-08T20:05:20.849Z,93982.56
2019-02-08T20:07:49.504Z,93985.44
2019-02-08T20:10:20.487Z,93979.80
2019-02-08T20:12:49.140Z,93977.16
2019-02-08T20:15:18.288Z,93975.03
2019-02-08T20:17:47.057Z,93969.34
2019-02-08T20:20:15.658Z,93962.33
2019-02-08T20:22:44.590Z,93954.17
2019-02-08T20:25:33.953Z,93955.70
2019-02-08T20:28:02.559Z,93948.66
2019-02-08T20:30:31.610Z,93948.55
2019-02-08T20:33:00.253Z,93943.09
2019-02-08T20:35:29.110Z,93950.64
2019-02-08T20:37:57.832Z,93940.91
2019-02-08T20:40:37.518Z,93955.25
2019-02-08T20:43:06.111Z,93925.30
2019-02-08T20:45:34.838Z,93924.38
2019-02-08T20:48:06.524Z,93931.95
2019-02-08T20:50:35.177Z,93918.91
2019-02-08T20:53:04.437Z,93929.37
2019-02-08T20:55:33.262Z,93931.35
2019-02-08T20:58:02.027Z,93934.77
2019-02-08T21:00:36.117Z,93933.60
2019-02-08T21:03:10.218Z,93924.55
2019-02-08T21:05:39.019Z,93924.13
2019-02-08T21:08:08.202Z,93907.18
2019-02-08T21:10:37.194Z,93913.22
2019-02-08T21:13:07.194Z,93907.42
2019-02-08T21:15:35.931Z,93888.90
2019-02-08T21:18:04.921Z,93903.12
2019-02-08T21:20:33.511Z,93883.26
2019-02-08T21:23:02.173Z,93884.56
2019-02-08T21:25:31.198Z,93872.74
2019-02-08T21:27:59.783Z,93874.77
2019-02-08T21:30:28.440Z,93878.20
2019-02-08T21:32:57.210Z,93867.16
2019-02-08T21:35:25.860Z,93870.38
2019-02-08T21:37:54.704Z,93847.83
2019-02-08T21:40:24.722Z,93846.03
2019-02-08T21:42:53.666Z,93848.31
2019-02-08T21:45:30.165Z,93841.11
2019-02-08T21:47:58.715Z,93832.34
2019-02-08T21:50:27.436Z,93852.08
2019-02-08T21:52:56.147Z,93845.38
2019-02-08T21:55:25.140Z,93837.23
2019-02-08T21:57:53.778Z,93836.10
2019-02-08T22:00:27.190Z,93839.03
2019-02-08T22:02:56.270Z,93835.69
2019-02-08T22:05:48.560Z,93843.16
2019-02-08T22:08:17.213Z,93846.53
2019-02-08T22:10:45.759Z,93837.77
2019-02-08T22:13:14.656Z,93833.06
2019-02-08T22:15:43.315Z,93828.95
2019-02-08T22:18:12.062Z,93828.43
2019-02-08T22:20:40.712Z,93834.42
2019-02-08T22:23:09.427Z,93830.95
2019-02-08T22:25:38.009Z,93827.94
2019-02-08T22:28:07.429Z,93827.92
2019-02-08T22:30:36.125Z,93832.33
2019-02-08T22:33:05.647Z,93827.18
2019-02-08T22:35:34.535Z,93819.66
2019-02-08T22:38:03.092Z,93820.56
2019-02-08T22:40:31.670Z,93806.80
2019-02-08T22:43:00.228Z,93808.30
2019-02-08T22:45:33.382Z,93807.21
2019-02-08T22:48:03.021Z,93816.25
2019-02-08T22:50:31.706Z,93817.27
2019-02-08T22:53:00.313Z,93811.77
2019-02-08T22:55:30.359Z,93786.55
2019-02-08T22:57:58.998Z,93800.39
2019-02-08T23:01:27.831Z,93776.85
2019-02-08T23:03:57.847Z,93790.48
2019-02-08T23:06:26.577Z,93797.05
2019-02-08T23:08:55.213Z,93791.80
2019-02-08T23:11:24.160Z,93786.70
2019-02-08T23:13:52.884Z,93770.17
2019-02-08T23:16:21.521Z,93764.92
2019-02-08T23:18:50.084Z,93772.45
2019-02-08T23:21:18.701Z,93758.13
2019-02-08T23:23:47.261Z,93759.41
2019-02-08T23:26:15.891Z,93764.05
2019-02-08T23:28:44.454Z,93756.77
2019-02-08T23:31:13.355Z,93757.55
2019-02-08T23:33:41.917Z,93747.54
2019-02-08T23:36:10.724Z,93751.92
2019-02-08T23:38:39.275Z,93743.44
2019-02-08T23:41:08.152Z,93745.73
2019-02-08T23:43:36.767Z,93751.13
2019-02-08T23:46:05.397Z,93737.20
2019-02-08T23:48:33.956Z,93728.48
2019-02-08T23:51:02.537Z,93736.66
2019-02-08T23:53:31.199Z,93730.95
2019-02-08T23:55:59.836Z,93721.53
2019-02-08T23:58:28.392Z,93722.02
